sensor_id;sensor_type;location;lat;lon;timestamp;P1;durP1;ratioP1;P2;durP2;ratioP2
9280;SDS011;4679;47.966;7.958;2022-12-18T00:00:07;24.75;;;11.43;;
9280;SDS011;4679;47.966;7.958;2022-12-18T00:02:09;23.90;;;10.43;;
9280;SDS011;4679;47.966;7.958;2022-12-18T00:04:16;25.65;;;11.68;;
9280;SDS011;4679;47.966;7.958;2022-12-18T08:01:45;18.95;;;10.90;;
9280;SDS011;4679;47.966;7.958;2022-12-18T08:03:47;23.23;;;13.40;;
9280;SDS011;4679;47.966;7.958;2022-12-18T08:05:48;26.33;;;14.10;;
9280;SDS011;4679;47.966;7.958;2022-12-18T08:07:50;24.52;;;12.52;;
9280;SDS011;4679;47.966;7.958;2022-12-18T08:09:52;22.45;;;11.82;;
9280;SDS011;4679;47.966;7.958;2022-12-18T08:11:53;19.80;;;10.35;;
9280;SDS011;4679;47.966;7.958;2022-12-18T08:13:55;15.45;;;8.80;;
9280;SDS011;4679;47.966;7.958;2022-12-18T08:15:58;13.80;;;6.60;;
9280;SDS011;4679;47.966;7.958;2022-12-18T08:18:02;9.98;;;5.85;;
9280;SDS011;4679;47.966;7.958;2022-12-18T08:20:04;16.27;;;7.68;;
9280;SDS011;4679;47.966;7.958;2022-12-18T08:22:07;14.63;;;7.78;;
9280;SDS011;4679;47.966;7.958;2022-12-18T08:24:08;20.27;;;10.13;;
9280;SDS011;4679;47.966;7.958;2022-12-18T08:26:11;19.33;;;9.98;;
9280;SDS011;4679;47.966;7.958;2022-12-18T08:28:17;20.88;;;11.45;;
9280;SDS011;4679;47.966;7.958;2022-12-18T08:30:19;20.85;;;11.25;;
9280;SDS011;4679;47.966;7.958;2022-12-18T08:32:21;20.48;;;10.88;;
9280;SDS011;4679;47.966;7.958;2022-12-18T08:34:24;15.57;;;9.77;;
9280;SDS011;4679;47.966;7.958;2022-12-18T08:36:25;16.73;;;9.88;;
9280;SDS011;4679;47.966;7.958;2022-12-18T08:38:27;21.50;;;9.93;;
9280;SDS011;4679;47.966;7.958;2022-12-18T08:40:29;16.25;;;10.05;;
9280;SDS011;4679;47.966;7.958;2022-12-18T08:42:34;14.43;;;9.80;;
9280;SDS011;4679;47.966;7.958;2022-12-18T08:44:53;16.17;;;9.23;;
9280;SDS011;4679;47.966;7.958;2022-12-18T08:46:54;15.02;;;10.85;;
9280;SDS011;4679;47.966;7.958;2022-12-18T08:48:56;19.75;;;9.55;;
9280;SDS011;4679;47.966;7.958;2022-12-18T08:50:59;26.13;;;13.00;;
9280;SDS011;4679;47.966;7.958;2022-12-18T08:53:01;21.58;;;12.80;;
9280;SDS011;4679;47.966;7.958;2022-12-18T08:55:03;23.40;;;13.55;;
9280;SDS011;4679;47.966;7.958;2022-12-18T08:57:06;23.67;;;13.07;;
9280;SDS011;4679;47.966;7.958;2022-12-18T08:59:08;27.42;;;14.55;;
9280;SDS011;4679;47.966;7.958;2022-12-18T09:01:10;19.42;;;11.13;;
9280;SDS011;4679;47.966;7.958;2022-12-18T09:03:14;19.13;;;11.38;;
9280;SDS011;4679;47.966;7.958;2022-12-18T09:05:16;10.77;;;7.35;;
9280;SDS011;4679;47.966;7.958;2022-12-18T09:07:20;10.45;;;7.10;;
9280;SDS011;4679;47.966;7.958;2022-12-18T09:09:21;10.77;;;5.70;;
9280;SDS011;4679;47.966;7.958;2022-12-18T09:11:24;7.15;;;4.95;;
9280;SDS011;4679;47.966;7.958;2022-12-18T09:13:27;7.45;;;4.68;;
9280;SDS011;4679;47.966;7.958;2022-12-18T09:15:29;6.32;;;4.75;;
9280;SDS011;4679;47.966;7.958;2022-12-18T09:17:31;6.28;;;5.07;;
9280;SDS011;4679;47.966;7.958;2022-12-18T09:19:32;5.88;;;3.97;;
9280;SDS011;4679;47.966;7.958;2022-12-18T09:21:34;8.10;;;5.60;;
9280;SDS011;4679;47.966;7.958;2022-12-18T09:23:41;7.93;;;4.32;;
9280;SDS011;4679;47.966;7.958;2022-12-18T09:25:43;9.60;;;5.15;;
9280;SDS011;4679;47.966;7.958;2022-12-18T09:27:46;9.25;;;5.03;;
9280;SDS011;4679;47.966;7.958;2022-12-18T09:29:48;10.85;;;5.15;;
9280;SDS011;4679;47.966;7.958;2022-12-18T09:31:49;7.97;;;5.07;;
9280;SDS011;4679;47.966;7.958;2022-12-18T09:33:51;9.05;;;5.50;;
9280;SDS011;4679;47.966;7.958;2022-12-18T09:35:53;8.95;;;4.47;;
9280;SDS011;4679;47.966;7.958;2022-12-18T09:37:54;8.40;;;4.13;;
9280;SDS011;4679;47.966;7.958;2022-12-18T09:39:58;4.93;;;3.45;;
9280;SDS011;4679;47.966;7.958;2022-12-18T09:41:59;7.25;;;3.60;;
9280;SDS011;4679;47.966;7.958;2022-12-18T09:44:02;7.85;;;4.30;;
9280;SDS011;4679;47.966;7.958;2022-12-18T09:46:14;8.65;;;6.03;;
9280;SDS011;4679;47.966;7.958;2022-12-18T09:48:21;10.70;;;7.13;;
9280;SDS011;4679;47.966;7.958;2022-12-18T09:50:28;18.20;;;10.07;;
9280;SDS011;4679;47.966;7.958;2022-12-18T09:52:35;17.30;;;9.93;;
9280;SDS011;4679;47.966;7.958;2022-12-18T09:54:45;12.40;;;8.23;;
9280;SDS011;4679;47.966;7.958;2022-12-18T09:56:50;12.97;;;8.10;;
9280;SDS011;4679;47.966;7.958;2022-12-18T09:58:53;11.00;;;6.80;;
9280;SDS011;4679;47.966;7.958;2022-12-18T10:00:58;9.63;;;6.43;;
9280;SDS011;4679;47.966;7.958;2022-12-18T10:03:00;10.63;;;5.63;;
9280;SDS011;4679;47.966;7.958;2022-12-18T10:05:10;11.77;;;7.43;;
9280;SDS011;4679;47.966;7.958;2022-12-18T10:07:15;7.53;;;4.73;;
9280;SDS011;4679;47.966;7.958;2022-12-18T10:09:26;7.33;;;4.20;;
9280;SDS011;4679;47.966;7.958;2022-12-18T10:11:38;4.70;;;3.63;;
9280;SDS011;4679;47.966;7.958;2022-12-18T10:13:52;6.00;;;4.20;;
9280;SDS011;4679;47.966;7.958;2022-12-18T10:16:00;5.13;;;3.77;;
9280;SDS011;4679;47.966;7.958;2022-12-18T10:18:16;4.37;;;2.73;;
9280;SDS011;4679;47.966;7.958;2022-12-18T10:20:28;3.83;;;2.30;;
9280;SDS011;4679;47.966;7.958;2022-12-18T10:22:39;6.70;;;4.00;;
9280;SDS011;4679;47.966;7.958;2022-12-18T10:24:54;7.47;;;4.23;;
9280;SDS011;4679;47.966;7.958;2022-12-18T10:27:08;6.47;;;3.73;;
9280;SDS011;4679;47.966;7.958;2022-12-18T10:29:16;11.33;;;6.70;;
9280;SDS011;4679;47.966;7.958;2022-12-18T10:31:19;7.00;;;5.70;;
9280;SDS011;4679;47.966;7.958;2022-12-18T10:33:27;7.93;;;5.73;;
9280;SDS011;4679;47.966;7.958;2022-12-18T10:35:31;12.27;;;6.77;;
9280;SDS011;4679;47.966;7.958;2022-12-18T10:37:33;11.00;;;6.60;;
9280;SDS011;4679;47.966;7.958;2022-12-18T10:39:35;9.37;;;5.70;;
9280;SDS011;4679;47.966;7.958;2022-12-18T10:41:36;9.23;;;5.00;;
9280;SDS011;4679;47.966;7.958;2022-12-18T10:43:39;6.83;;;5.00;;
9280;SDS011;4679;47.966;7.958;2022-12-18T10:45:42;6.23;;;3.50;;
9280;SDS011;4679;47.966;7.958;2022-12-18T10:48:00;10.17;;;3.63;;
9280;SDS011;4679;47.966;7.958;2022-12-18T10:50:02;5.63;;;3.57;;
9280;SDS011;4679;47.966;7.958;2022-12-18T10:52:06;6.97;;;3.70;;
9280;SDS011;4679;47.966;7.958;2022-12-18T10:54:15;7.93;;;4.53;;
9280;SDS011;4679;47.966;7.958;2022-12-18T10:56:19;7.40;;;3.37;;
9280;SDS011;4679;47.966;7.958;2022-12-18T10:58:23;4.97;;;2.97;;
9280;SDS011;4679;47.966;7.958;2022-12-18T11:00:26;4.87;;;3.17;;
9280;SDS011;4679;47.966;7.958;2022-12-18T11:02:35;4.83;;;2.90;;
9280;SDS011;4679;47.966;7.958;2022-12-18T11:04:40;3.80;;;2.70;;
9280;SDS011;4679;47.966;7.958;2022-12-18T11:06:52;2.37;;;1.87;;
9280;SDS011;4679;47.966;7.958;2022-12-18T11:08:59;4.40;;;2.90;;
9280;SDS011;4679;47.966;7.958;2022-12-18T11:11:02;4.67;;;2.87;;
9280;SDS011;4679;47.966;7.958;2022-12-18T11:13:09;2.97;;;2.13;;
9280;SDS011;4679;47.966;7.958;2022-12-18T11:15:15;3.10;;;2.27;;
9280;SDS011;4679;47.966;7.958;2022-12-18T11:17:21;3.57;;;2.57;;
9280;SDS011;4679;47.966;7.958;2022-12-18T11:19:30;2.37;;;2.13;;
9280;SDS011;4679;47.966;7.958;2022-12-18T11:21:38;5.87;;;2.80;;
9280;SDS011;4679;47.966;7.958;2022-12-18T11:23:44;6.30;;;3.20;;
9280;SDS011;4679;47.966;7.958;2022-12-18T11:25:51;4.43;;;2.87;;
9280;SDS011;4679;47.966;7.958;2022-12-18T11:27:56;4.20;;;2.97;;
9280;SDS011;4679;47.966;7.958;2022-12-18T11:30:07;4.27;;;2.93;;
9280;SDS011;4679;47.966;7.958;2022-12-18T11:32:22;3.97;;;2.83;;
9280;SDS011;4679;47.966;7.958;2022-12-18T11:34:30;6.00;;;3.37;;
9280;SDS011;4679;47.966;7.958;2022-12-18T11:36:34;7.57;;;5.53;;
9280;SDS011;4679;47.966;7.958;2022-12-18T11:38:40;7.57;;;4.30;;
9280;SDS011;4679;47.966;7.958;2022-12-18T11:40:45;5.77;;;4.43;;
9280;SDS011;4679;47.966;7.958;2022-12-18T11:42:54;9.40;;;5.57;;
9280;SDS011;4679;47.966;7.958;2022-12-18T11:45:00;7.70;;;5.87;;
9280;SDS011;4679;47.966;7.958;2022-12-18T11:47:09;8.20;;;6.33;;
9280;SDS011;4679;47.966;7.958;2022-12-18T11:49:17;8.80;;;5.90;;
9280;SDS011;4679;47.966;7.958;2022-12-18T11:51:25;9.80;;;6.13;;
9280;SDS011;4679;47.966;7.958;2022-12-18T11:53:33;8.80;;;6.00;;
9280;SDS011;4679;47.966;7.958;2022-12-18T11:55:40;10.27;;;5.47;;
9280;SDS011;4679;47.966;7.958;2022-12-18T11:57:51;8.97;;;5.43;;
9280;SDS011;4679;47.966;7.958;2022-12-18T12:00:01;8.43;;;5.57;;
9280;SDS011;4679;47.966;7.958;2022-12-18T12:02:12;7.97;;;5.43;;
9280;SDS011;4679;47.966;7.958;2022-12-18T12:04:33;9.63;;;6.77;;
9280;SDS011;4679;47.966;7.958;2022-12-18T12:06:48;13.90;;;6.83;;
9280;SDS011;4679;47.966;7.958;2022-12-18T12:09:02;11.23;;;7.47;;
9280;SDS011;4679;47.966;7.958;2022-12-18T12:11:13;8.93;;;5.37;;
9280;SDS011;4679;47.966;7.958;2022-12-18T12:13:27;6.73;;;4.63;;
9280;SDS011;4679;47.966;7.958;2022-12-18T12:15:39;6.87;;;4.27;;
9280;SDS011;4679;47.966;7.958;2022-12-18T12:17:54;6.90;;;4.77;;
9280;SDS011;4679;47.966;7.958;2022-12-18T12:20:04;6.73;;;4.37;;
9280;SDS011;4679;47.966;7.958;2022-12-18T12:22:18;4.60;;;4.03;;
9280;SDS011;4679;47.966;7.958;2022-12-18T12:24:29;9.07;;;5.77;;
9280;SDS011;4679;47.966;7.958;2022-12-18T12:26:42;8.67;;;5.97;;
9280;SDS011;4679;47.966;7.958;2022-12-18T12:28:57;7.67;;;5.80;;
9280;SDS011;4679;47.966;7.958;2022-12-18T12:31:05;11.93;;;7.30;;
9280;SDS011;4679;47.966;7.958;2022-12-18T12:33:18;10.97;;;7.27;;
9280;SDS011;4679;47.966;7.958;2022-12-18T12:35:32;12.07;;;8.50;;
9280;SDS011;4679;47.966;7.958;2022-12-18T12:37:48;12.77;;;8.63;;
9280;SDS011;4679;47.966;7.958;2022-12-18T12:39:57;12.90;;;9.03;;
9280;SDS011;4679;47.966;7.958;2022-12-18T12:42:01;15.10;;;9.63;;
9280;SDS011;4679;47.966;7.958;2022-12-18T12:44:22;23.67;;;12.40;;
9280;SDS011;4679;47.966;7.958;2022-12-18T12:46:27;16.97;;;11.20;;
9280;SDS011;4679;47.966;7.958;2022-12-18T12:48:35;16.90;;;11.70;;
9280;SDS011;4679;47.966;7.958;2022-12-18T12:50:41;20.30;;;11.87;;
9280;SDS011;4679;47.966;7.958;2022-12-18T12:52:43;20.00;;;12.63;;
9280;SDS011;4679;47.966;7.958;2022-12-18T12:54:50;15.43;;;10.07;;
9280;SDS011;4679;47.966;7.958;2022-12-18T12:56:57;18.37;;;12.03;;
9280;SDS011;4679;47.966;7.958;2022-12-18T12:59:04;20.47;;;12.73;;
9280;SDS011;4679;47.966;7.958;2022-12-18T13:01:19;19.63;;;11.53;;
9280;SDS011;4679;47.966;7.958;2022-12-18T13:03:29;21.73;;;13.37;;
9280;SDS011;4679;47.966;7.958;2022-12-18T13:05:40;22.77;;;13.57;;
9280;SDS011;4679;47.966;7.958;2022-12-18T13:07:50;21.10;;;13.67;;
9280;SDS011;4679;47.966;7.958;2022-12-18T13:10:12;22.87;;;14.17;;
9280;SDS011;4679;47.966;7.958;2022-12-18T13:12:23;29.43;;;15.50;;
9280;SDS011;4679;47.966;7.958;2022-12-18T13:14:43;28.80;;;16.27;;
9280;SDS011;4679;47.966;7.958;2022-12-18T13:16:44;25.77;;;16.10;;
9280;SDS011;4679;47.966;7.958;2022-12-18T13:18:49;31.90;;;16.33;;
9280;SDS011;4679;47.966;7.958;2022-12-18T13:21:02;31.80;;;16.30;;
9280;SDS011;4679;47.966;7.958;2022-12-18T13:23:30;27.40;;;16.10;;
9280;SDS011;4679;47.966;7.958;2022-12-18T13:25:34;29.73;;;17.33;;
9280;SDS011;4679;47.966;7.958;2022-12-18T13:32:40;33.17;;;18.87;;
9280;SDS011;4679;47.966;7.958;2022-12-18T13:34:42;30.30;;;18.03;;
9280;SDS011;4679;47.966;7.958;2022-12-18T13:36:44;33.23;;;18.53;;
9280;SDS011;4679;47.966;7.958;2022-12-18T13:38:52;32.43;;;19.20;;
9280;SDS011;4679;47.966;7.958;2022-12-18T13:41:22;30.10;;;18.90;;
9280;SDS011;4679;47.966;7.958;2022-12-18T13:43:27;29.00;;;17.47;;
9280;SDS011;4679;47.966;7.958;2022-12-18T13:45:37;33.40;;;19.67;;
9280;SDS011;4679;47.966;7.958;2022-12-18T13:47:41;36.33;;;20.80;;
9280;SDS011;4679;47.966;7.958;2022-12-18T13:49:45;30.17;;;19.87;;
9280;SDS011;4679;47.966;7.958;2022-12-18T13:51:48;29.00;;;18.93;;
9280;SDS011;4679;47.966;7.958;2022-12-18T13:53:53;29.80;;;19.77;;
9280;SDS011;4679;47.966;7.958;2022-12-18T13:55:58;30.97;;;19.80;;
9280;SDS011;4679;47.966;7.958;2022-12-18T13:58:03;37.03;;;19.67;;
9280;SDS011;4679;47.966;7.958;2022-12-18T14:00:22;26.63;;;18.60;;
9280;SDS011;4679;47.966;7.958;2022-12-18T14:02:26;31.60;;;17.97;;
9280;SDS011;4679;47.966;7.958;2022-12-18T14:04:30;33.37;;;20.30;;
9280;SDS011;4679;47.966;7.958;2022-12-18T14:06:34;32.87;;;18.57;;
9280;SDS011;4679;47.966;7.958;2022-12-18T14:08:37;32.97;;;18.97;;
9280;SDS011;4679;47.966;7.958;2022-12-18T14:10:42;28.90;;;18.47;;
9280;SDS011;4679;47.966;7.958;2022-12-18T14:12:45;33.03;;;18.67;;
9280;SDS011;4679;47.966;7.958;2022-12-18T14:14:57;29.27;;;18.67;;
9280;SDS011;4679;47.966;7.958;2022-12-18T14:16:59;38.03;;;20.83;;
9280;SDS011;4679;47.966;7.958;2022-12-18T14:19:02;32.83;;;19.43;;
9280;SDS011;4679;47.966;7.958;2022-12-18T14:21:04;34.07;;;20.23;;
9280;SDS011;4679;47.966;7.958;2022-12-18T14:23:24;35.00;;;21.70;;
9280;SDS011;4679;47.966;7.958;2022-12-18T14:25:27;40.13;;;22.07;;
9280;SDS011;4679;47.966;7.958;2022-12-18T14:27:36;30.50;;;18.83;;
9280;SDS011;4679;47.966;7.958;2022-12-18T14:29:39;30.10;;;17.20;;
9280;SDS011;4679;47.966;7.958;2022-12-18T14:31:44;29.10;;;18.93;;
9280;SDS011;4679;47.966;7.958;2022-12-18T14:33:46;31.60;;;20.30;;
9280;SDS011;4679;47.966;7.958;2022-12-18T14:35:54;26.40;;;16.93;;
9280;SDS011;4679;47.966;7.958;2022-12-18T14:38:09;34.73;;;19.37;;
9280;SDS011;4679;47.966;7.958;2022-12-18T14:40:19;36.10;;;19.47;;
9280;SDS011;4679;47.966;7.958;2022-12-18T14:42:20;32.40;;;18.97;;
9280;SDS011;4679;47.966;7.958;2022-12-18T14:44:23;33.83;;;20.33;;
9280;SDS011;4679;47.966;7.958;2022-12-18T14:46:27;35.67;;;20.20;;
9280;SDS011;4679;47.966;7.958;2022-12-18T14:48:35;34.90;;;21.33;;
9280;SDS011;4679;47.966;7.958;2022-12-18T14:50:39;37.47;;;21.80;;
9280;SDS011;4679;47.966;7.958;2022-12-18T14:52:41;34.13;;;21.00;;
9280;SDS011;4679;47.966;7.958;2022-12-18T14:54:45;32.30;;;19.43;;
9280;SDS011;4679;47.966;7.958;2022-12-18T14:56:48;31.10;;;19.63;;
9280;SDS011;4679;47.966;7.958;2022-12-18T14:58:53;35.60;;;18.93;;
9280;SDS011;4679;47.966;7.958;2022-12-18T15:00:57;36.53;;;20.70;;
9280;SDS011;4679;47.966;7.958;2022-12-18T15:02:59;35.63;;;19.50;;
9280;SDS011;4679;47.966;7.958;2022-12-18T15:05:02;35.37;;;20.60;;
9280;SDS011;4679;47.966;7.958;2022-12-18T15:07:11;35.47;;;19.33;;
9280;SDS011;4679;47.966;7.958;2022-12-18T15:09:21;36.20;;;20.83;;
9280;SDS011;4679;47.966;7.958;2022-12-18T15:11:28;34.07;;;19.77;;
9280;SDS011;4679;47.966;7.958;2022-12-18T15:13:34;34.30;;;20.13;;
9280;SDS011;4679;47.966;7.958;2022-12-18T15:15:45;36.43;;;21.83;;
9280;SDS011;4679;47.966;7.958;2022-12-18T15:17:55;44.80;;;23.73;;
9280;SDS011;4679;47.966;7.958;2022-12-18T15:19:58;34.10;;;20.80;;
9280;SDS011;4679;47.966;7.958;2022-12-18T15:22:02;36.87;;;22.60;;
9280;SDS011;4679;47.966;7.958;2022-12-18T15:24:04;32.50;;;18.87;;
9280;SDS011;4679;47.966;7.958;2022-12-18T15:26:17;32.30;;;18.70;;
9280;SDS011;4679;47.966;7.958;2022-12-18T15:28:21;28.67;;;17.07;;
9280;SDS011;4679;47.966;7.958;2022-12-18T15:30:25;30.50;;;18.03;;
9280;SDS011;4679;47.966;7.958;2022-12-18T15:32:27;34.87;;;18.40;;
9280;SDS011;4679;47.966;7.958;2022-12-18T15:34:30;32.63;;;17.20;;
9280;SDS011;4679;47.966;7.958;2022-12-18T15:36:34;27.00;;;16.93;;
9280;SDS011;4679;47.966;7.958;2022-12-18T15:38:36;28.37;;;18.80;;
9280;SDS011;4679;47.966;7.958;2022-12-18T15:40:38;34.13;;;17.63;;
9280;SDS011;4679;47.966;7.958;2022-12-18T15:42:39;30.90;;;16.87;;
9280;SDS011;4679;47.966;7.958;2022-12-18T15:44:59;27.47;;;15.40;;
9280;SDS011;4679;47.966;7.958;2022-12-18T15:47:00;34.13;;;16.47;;
9280;SDS011;4679;47.966;7.958;2022-12-18T15:49:02;24.67;;;14.80;;
9280;SDS011;4679;47.966;7.958;2022-12-18T15:51:08;28.37;;;15.73;;
9280;SDS011;4679;47.966;7.958;2022-12-18T15:53:13;31.63;;;15.40;;
9280;SDS011;4679;47.966;7.958;2022-12-18T15:55:15;27.63;;;15.87;;
9280;SDS011;4679;47.966;7.958;2022-12-18T15:57:35;24.93;;;15.43;;
9280;SDS011;4679;47.966;7.958;2022-12-18T15:59:37;25.77;;;17.30;;
9280;SDS011;4679;47.966;7.958;2022-12-18T16:01:39;32.67;;;18.27;;
9280;SDS011;4679;47.966;7.958;2022-12-18T16:03:43;29.67;;;17.90;;
9280;SDS011;4679;47.966;7.958;2022-12-18T16:05:45;27.50;;;15.17;;
9280;SDS011;4679;47.966;7.958;2022-12-18T16:07:48;24.87;;;16.43;;
9280;SDS011;4679;47.966;7.958;2022-12-18T16:09:49;24.03;;;13.83;;
9280;SDS011;4679;47.966;7.958;2022-12-18T16:11:51;26.07;;;15.20;;
9280;SDS011;4679;47.966;7.958;2022-12-18T16:13:53;24.83;;;15.93;;
9280;SDS011;4679;47.966;7.958;2022-12-18T16:15:55;26.33;;;16.07;;
9280;SDS011;4679;47.966;7.958;2022-12-18T16:17:56;24.20;;;15.93;;
9280;SDS011;4679;47.966;7.958;2022-12-18T16:19:58;27.07;;;15.73;;
9280;SDS011;4679;47.966;7.958;2022-12-18T16:22:00;32.20;;;18.73;;
9280;SDS011;4679;47.966;7.958;2022-12-18T16:24:03;28.63;;;17.00;;
9280;SDS011;4679;47.966;7.958;2022-12-18T16:26:05;29.10;;;16.30;;
9280;SDS011;4679;47.966;7.958;2022-12-18T16:28:06;32.13;;;17.83;;
9280;SDS011;4679;47.966;7.958;2022-12-18T16:30:11;28.87;;;16.47;;
9280;SDS011;4679;47.966;7.958;2022-12-18T16:32:15;28.50;;;16.40;;
9280;SDS011;4679;47.966;7.958;2022-12-18T16:34:18;28.33;;;17.80;;
9280;SDS011;4679;47.966;7.958;2022-12-18T16:36:22;30.30;;;16.57;;
9280;SDS011;4679;47.966;7.958;2022-12-18T16:38:23;34.50;;;20.23;;
9280;SDS011;4679;47.966;7.958;2022-12-18T16:40:27;39.43;;;23.57;;
9280;SDS011;4679;47.966;7.958;2022-12-18T16:42:28;39.77;;;21.10;;
9280;SDS011;4679;47.966;7.958;2022-12-18T16:44:30;27.53;;;17.17;;
9280;SDS011;4679;47.966;7.958;2022-12-18T16:46:32;25.07;;;17.30;;
9280;SDS011;4679;47.966;7.958;2022-12-18T16:48:33;31.53;;;18.20;;
9280;SDS011;4679;47.966;7.958;2022-12-18T16:50:35;41.07;;;21.63;;
9280;SDS011;4679;47.966;7.958;2022-12-18T16:52:37;40.53;;;22.87;;
9280;SDS011;4679;47.966;7.958;2022-12-18T16:54:39;35.50;;;20.63;;
9280;SDS011;4679;47.966;7.958;2022-12-18T16:56:42;41.10;;;24.07;;
9280;SDS011;4679;47.966;7.958;2022-12-18T16:58:47;35.37;;;21.90;;
9280;SDS011;4679;47.966;7.958;2022-12-18T17:00:51;34.50;;;20.17;;
9280;SDS011;4679;47.966;7.958;2022-12-18T17:02:52;36.17;;;21.77;;
9280;SDS011;4679;47.966;7.958;2022-12-18T17:04:55;42.43;;;21.60;;
9280;SDS011;4679;47.966;7.958;2022-12-18T17:06:57;35.10;;;21.83;;
9280;SDS011;4679;47.966;7.958;2022-12-18T17:08:59;33.27;;;21.20;;
9280;SDS011;4679;47.966;7.958;2022-12-18T17:11:03;38.10;;;21.20;;
9280;SDS011;4679;47.966;7.958;2022-12-18T17:13:07;38.07;;;22.90;;
9280;SDS011;4679;47.966;7.958;2022-12-18T17:15:09;34.00;;;20.37;;
9280;SDS011;4679;47.966;7.958;2022-12-18T17:17:12;37.90;;;22.27;;
9280;SDS011;4679;47.966;7.958;2022-12-18T17:19:14;40.10;;;25.47;;
9280;SDS011;4679;47.966;7.958;2022-12-18T17:21:16;41.93;;;26.50;;
9280;SDS011;4679;47.966;7.958;2022-12-18T17:23:18;37.83;;;24.17;;
9280;SDS011;4679;47.966;7.958;2022-12-18T17:25:19;42.87;;;26.27;;
9280;SDS011;4679;47.966;7.958;2022-12-18T17:27:21;41.40;;;25.83;;
9280;SDS011;4679;47.966;7.958;2022-12-18T17:29:24;46.17;;;26.43;;
9280;SDS011;4679;47.966;7.958;2022-12-18T17:31:27;41.33;;;24.90;;
9280;SDS011;4679;47.966;7.958;2022-12-18T17:33:30;68.00;;;32.53;;
9280;SDS011;4679;47.966;7.958;2022-12-18T17:35:31;68.80;;;34.40;;
9280;SDS011;4679;47.966;7.958;2022-12-18T17:37:33;61.93;;;30.73;;
9280;SDS011;4679;47.966;7.958;2022-12-18T17:39:35;55.27;;;28.20;;
9280;SDS011;4679;47.966;7.958;2022-12-18T17:41:37;47.13;;;27.13;;
9280;SDS011;4679;47.966;7.958;2022-12-18T17:43:39;43.77;;;28.33;;
9280;SDS011;4679;47.966;7.958;2022-12-18T17:45:46;45.27;;;25.47;;
9280;SDS011;4679;47.966;7.958;2022-12-18T17:47:47;37.60;;;23.83;;
9280;SDS011;4679;47.966;7.958;2022-12-18T17:49:49;40.17;;;22.93;;
9280;SDS011;4679;47.966;7.958;2022-12-18T17:51:51;45.50;;;24.83;;
9280;SDS011;4679;47.966;7.958;2022-12-18T17:53:53;40.23;;;24.67;;
9280;SDS011;4679;47.966;7.958;2022-12-18T17:55:54;44.03;;;25.70;;
9280;SDS011;4679;47.966;7.958;2022-12-18T17:57:57;44.37;;;25.37;;
9280;SDS011;4679;47.966;7.958;2022-12-18T17:59:58;41.80;;;25.57;;
9280;SDS011;4679;47.966;7.958;2022-12-18T18:02:02;43.17;;;24.37;;
9280;SDS011;4679;47.966;7.958;2022-12-18T18:04:04;41.13;;;25.17;;
9280;SDS011;4679;47.966;7.958;2022-12-18T18:06:06;42.73;;;25.20;;
9280;SDS011;4679;47.966;7.958;2022-12-18T18:08:08;38.17;;;24.10;;
9280;SDS011;4679;47.966;7.958;2022-12-18T18:10:10;48.40;;;25.13;;
9280;SDS011;4679;47.966;7.958;2022-12-18T18:12:12;47.87;;;27.33;;
9280;SDS011;4679;47.966;7.958;2022-12-18T18:14:31;55.67;;;29.73;;
9280;SDS011;4679;47.966;7.958;2022-12-18T18:16:35;47.17;;;27.47;;
9280;SDS011;4679;47.966;7.958;2022-12-18T18:18:39;43.93;;;24.70;;
9280;SDS011;4679;47.966;7.958;2022-12-18T18:20:40;41.80;;;24.83;;
9280;SDS011;4679;47.966;7.958;2022-12-18T18:22:42;46.90;;;25.60;;
9280;SDS011;4679;47.966;7.958;2022-12-18T18:24:44;41.70;;;25.17;;
9280;SDS011;4679;47.966;7.958;2022-12-18T18:26:46;38.37;;;24.37;;
9280;SDS011;4679;47.966;7.958;2022-12-18T18:28:47;47.27;;;25.77;;
9280;SDS011;4679;47.966;7.958;2022-12-18T18:30:49;46.17;;;28.07;;
9280;SDS011;4679;47.966;7.958;2022-12-18T18:32:51;45.27;;;29.80;;
9280;SDS011;4679;47.966;7.958;2022-12-18T18:34:54;45.13;;;28.53;;
9280;SDS011;4679;47.966;7.958;2022-12-18T18:36:56;47.60;;;28.23;;
9280;SDS011;4679;47.966;7.958;2022-12-18T18:38:58;49.57;;;27.87;;
9280;SDS011;4679;47.966;7.958;2022-12-18T18:41:01;56.80;;;31.93;;
9280;SDS011;4679;47.966;7.958;2022-12-18T18:43:03;54.90;;;30.97;;
9280;SDS011;4679;47.966;7.958;2022-12-18T18:45:05;52.60;;;31.97;;
9280;SDS011;4679;47.966;7.958;2022-12-18T18:47:08;45.33;;;28.00;;
9280;SDS011;4679;47.966;7.958;2022-12-18T18:49:10;37.53;;;22.40;;
9280;SDS011;4679;47.966;7.958;2022-12-18T18:51:14;37.60;;;22.87;;
9280;SDS011;4679;47.966;7.958;2022-12-18T18:53:18;37.47;;;23.60;;
9280;SDS011;4679;47.966;7.958;2022-12-18T18:55:19;37.60;;;23.00;;
9280;SDS011;4679;47.966;7.958;2022-12-18T18:57:21;38.40;;;23.60;;
9280;SDS011;4679;47.966;7.958;2022-12-18T18:59:23;37.53;;;21.57;;
9280;SDS011;4679;47.966;7.958;2022-12-18T19:01:25;42.03;;;23.13;;
9280;SDS011;4679;47.966;7.958;2022-12-18T19:03:27;39.83;;;23.23;;
9280;SDS011;4679;47.966;7.958;2022-12-18T19:05:29;33.60;;;19.93;;
9280;SDS011;4679;47.966;7.958;2022-12-18T19:07:33;41.87;;;22.70;;
9280;SDS011;4679;47.966;7.958;2022-12-18T19:09:34;39.40;;;21.60;;
9280;SDS011;4679;47.966;7.958;2022-12-18T19:11:37;36.97;;;23.17;;
9280;SDS011;4679;47.966;7.958;2022-12-18T19:13:57;40.00;;;23.67;;
9280;SDS011;4679;47.966;7.958;2022-12-18T19:16:01;42.37;;;24.73;;
9280;SDS011;4679;47.966;7.958;2022-12-18T19:18:04;40.77;;;25.23;;
9280;SDS011;4679;47.966;7.958;2022-12-18T19:20:07;39.33;;;24.00;;
9280;SDS011;4679;47.966;7.958;2022-12-18T19:22:09;36.63;;;22.40;;
9280;SDS011;4679;47.966;7.958;2022-12-18T19:24:12;38.07;;;22.40;;
9280;SDS011;4679;47.966;7.958;2022-12-18T19:26:15;43.87;;;24.80;;
9280;SDS011;4679;47.966;7.958;2022-12-18T19:28:18;41.00;;;24.33;;
9280;SDS011;4679;47.966;7.958;2022-12-18T19:30:25;41.83;;;23.20;;
9280;SDS011;4679;47.966;7.958;2022-12-18T19:32:26;37.60;;;24.57;;
9280;SDS011;4679;47.966;7.958;2022-12-18T19:34:28;43.20;;;24.60;;
9280;SDS011;4679;47.966;7.958;2022-12-18T19:36:30;39.20;;;22.50;;
9280;SDS011;4679;47.966;7.958;2022-12-18T19:38:33;42.23;;;23.50;;
9280;SDS011;4679;47.966;7.958;2022-12-18T19:40:36;33.80;;;21.27;;
9280;SDS011;4679;47.966;7.958;2022-12-18T19:42:40;38.63;;;21.33;;
9280;SDS011;4679;47.966;7.958;2022-12-18T19:44:42;39.63;;;22.53;;
9280;SDS011;4679;47.966;7.958;2022-12-18T19:46:44;43.97;;;23.33;;
9280;SDS011;4679;47.966;7.958;2022-12-18T19:48:46;39.00;;;21.47;;
9280;SDS011;4679;47.966;7.958;2022-12-18T19:50:49;38.97;;;24.20;;
9280;SDS011;4679;47.966;7.958;2022-12-18T19:52:50;36.93;;;21.80;;
9280;SDS011;4679;47.966;7.958;2022-12-18T19:54:52;37.13;;;23.03;;
9280;SDS011;4679;47.966;7.958;2022-12-18T19:56:55;38.87;;;22.13;;
9280;SDS011;4679;47.966;7.958;2022-12-18T19:58:57;37.27;;;21.47;;
9280;SDS011;4679;47.966;7.958;2022-12-18T20:00:59;36.00;;;21.00;;
9280;SDS011;4679;47.966;7.958;2022-12-18T20:03:01;39.00;;;21.33;;
9280;SDS011;4679;47.966;7.958;2022-12-18T20:05:04;31.97;;;21.10;;
9280;SDS011;4679;47.966;7.958;2022-12-18T20:07:08;36.90;;;20.83;;
9280;SDS011;4679;47.966;7.958;2022-12-18T20:09:09;35.30;;;21.00;;
9280;SDS011;4679;47.966;7.958;2022-12-18T20:11:11;43.20;;;26.83;;
9280;SDS011;4679;47.966;7.958;2022-12-18T20:13:14;38.47;;;22.93;;
9280;SDS011;4679;47.966;7.958;2022-12-18T20:15:17;41.13;;;23.87;;
9280;SDS011;4679;47.966;7.958;2022-12-18T20:17:18;44.87;;;24.43;;
9280;SDS011;4679;47.966;7.958;2022-12-18T20:19:20;38.30;;;23.23;;
9280;SDS011;4679;47.966;7.958;2022-12-18T20:21:22;38.77;;;23.67;;
9280;SDS011;4679;47.966;7.958;2022-12-18T20:23:25;34.37;;;22.43;;
9280;SDS011;4679;47.966;7.958;2022-12-18T20:25:26;40.30;;;22.37;;
9280;SDS011;4679;47.966;7.958;2022-12-18T20:27:28;39.27;;;22.33;;
9280;SDS011;4679;47.966;7.958;2022-12-18T20:29:31;40.23;;;21.73;;
9280;SDS011;4679;47.966;7.958;2022-12-18T20:31:33;41.13;;;23.53;;
9280;SDS011;4679;47.966;7.958;2022-12-18T20:33:35;41.90;;;21.97;;
9280;SDS011;4679;47.966;7.958;2022-12-18T20:35:37;34.53;;;21.83;;
9280;SDS011;4679;47.966;7.958;2022-12-18T20:37:39;36.43;;;21.30;;
9280;SDS011;4679;47.966;7.958;2022-12-18T20:39:41;38.73;;;23.53;;